Aérodrome :
LOGIN :

S'inscrire | Disclaimer

   EN    FR    IT 

 










Légende :    VFR   VFR Marginal   IFR   IFR Intensif   IFR Très Intensif
Visi : 
Plafond : 
>= 8 km
>= 3000ft
5 à 8 km
1000 à 3000 ft
1500m à 5 km
500 à 1000 ft
800 à 1500m
200 à 500 ft
< 800m
< 200 ft
Symboles :   Orages  Brouillard  Fortes neiges  Fortes précipitations  Vent > 20 kt
SIGMETs :   Divers  Orages  Givrage  Turbulence  Onde Orograph.  Cendres Volcan.







- Altitude de l'aérodrome : 427 ft
- Code IATA : CIA


LIRA - Roma Ciampino

DERNIER METAR :
  • 231720Z 22004KT 180V250 CAVOK 21/11 Q1017

METARs EXPIRÉS :
  • 231650Z 24006KT 220V280 CAVOK 22/11 Q1017
  • 231620Z 25006KT 220V280 CAVOK 22/11 Q1017
  • 231550Z 25007KT 210V270 CAVOK 23/11 Q1017
  • 231520Z 27009KT CAVOK 23/10 Q1017
  • 231450Z 28009KT CAVOK 23/10 Q1017
  • 231420Z 26009KT CAVOK 24/09 Q1017

TAF TAF LIRA
Valide du 23 à 12h jusqu'au 24 à 12h UTC


231100Z 2312/2412 26010KT 8000 NSC
BECMG 2318/2320 VRB04KT
TEMPO 2400/2406 0800 BCFG
Pas de NOTAMs connus pour ce terrain.



MET'MAP, la Météo Aéronautique d'un coup d'oeil ! - Copyright ORBIFLY Décembre 2007 - Disclaimer

ORBIFLY MET'MAP TEAM :

Programmation & Développement : Alexandra Zaïnal
Conception & Développement : Baudouin d'Aumeries
Co-Programmation & Développement : Marc-Olivier Méhu
Soutien technique & logistique : Manuel Goepfert

Contact : metmap@orbifly.com




SOURCES & CREDITS :

   NOAA